Florence Regional Airport
KFLO : now visible

Airfield :











YOU CAN JOIN US ON...

 
LOGIN :

Register | Disclaimer

   EN    FR    IT 

 









Legend :    VFR   Marginal VFR   IFR   Intensive IFR   Very Intensive IFR
Visi :
Ceiling :
>= 8 km
>= 3000ft
5 to 8 km
1000 to 3000 ft
1500m to 5 km
500 to 1000 ft
800 to 1500m
200 to 500 ft
< 800m
< 200 ft
Symbols :   Thunderstorms  Fog  Heavy snow  Heavy precipitations  Wind > 20 kt






- Airport Elevation : 146 ft
- IATA code : FLO


KFLO - Florence Regional

CURRENT METAR :
  • 041353Z 03010KT 10SM CLR 13/07 A3025 RMK AO2 SLP240 T01280072

EXPIRED METARs :
  • 041253Z 03007KT 10SM FEW055 12/09 A3023 RMK AO2 SLP236 T01170094
  • 041153Z 02005KT 10SM OVC050 12/10 A3023 RMK AO2 SLP234 70003 T01220100 10156 20122 53008

TAF KFLO
Valid from the 04 at 12:00 until the 05 at 12:00 UTC


041127Z 0412/0512 02006KT P6SM BKN060
FM041700 04006KT P6SM BKN150
KZJX FIR / North America



MET'MAP, your aeronautical weather chart ! - Copyright ORBIFLY December 2007 - Disclaimer

ORBIFLY MET'MAP TEAM :

Programming & Development : Alexandra Zaïnal
Original concept : Baudouin d'Aumeries
Technical & hardware support : Manuel Goepfert
Assistance : Marc-Olivier Méhu




SOURCES & CREDITS :

   NOAA       Earth
Advisory